createdAt,value
2023-04-13T00:00:47.966Z,9.41
2023-04-13T00:03:17.564Z,9.45
2023-04-13T00:05:47.011Z,9.44
2023-04-13T00:08:17.172Z,9.49
2023-04-13T00:10:46.499Z,9.49
2023-04-13T00:13:14.830Z,9.48
2023-04-13T00:15:44.054Z,9.50
2023-04-13T00:18:12.485Z,9.53
2023-04-13T00:20:41.783Z,9.55
2023-04-13T00:23:10.105Z,9.61
2023-04-13T00:25:37.893Z,9.64
2023-04-13T00:28:07.199Z,9.66
2023-04-13T00:30:35.103Z,9.71
2023-04-13T00:33:05.864Z,9.57
2023-04-13T00:35:33.834Z,9.54
2023-04-13T00:38:02.808Z,9.59
2023-04-13T00:40:31.086Z,9.60
2023-04-13T00:43:00.543Z,9.62
2023-04-13T00:45:30.440Z,9.59
2023-04-13T00:48:00.228Z,9.57
2023-04-13T00:50:28.417Z,9.57
2023-04-13T00:52:57.950Z,9.61
2023-04-13T00:55:27.599Z,9.60
2023-04-13T00:57:55.436Z,9.66
2023-04-13T01:00:24.857Z,9.66
2023-04-13T01:02:56.959Z,9.69
2023-04-13T01:05:26.573Z,9.70
2023-04-13T01:08:01.580Z,9.68
2023-04-13T01:10:34.517Z,9.70
2023-04-13T01:13:12.128Z,9.69
2023-04-13T01:15:54.690Z,9.78
2023-04-13T01:21:16.237Z,9.64
2023-04-13T01:23:52.310Z,9.69
2023-04-13T01:26:22.558Z,9.72
2023-04-13T01:28:52.991Z,9.69
2023-04-13T01:31:22.431Z,9.64
2023-04-13T01:33:50.525Z,9.68
2023-04-13T01:36:19.230Z,9.75
2023-04-13T01:38:47.229Z,9.70
2023-04-13T01:41:16.276Z,9.71
2023-04-13T01:43:46.250Z,9.72
2023-04-13T01:46:17.550Z,9.67
2023-04-13T01:49:11.252Z,9.63
2023-04-13T01:52:09.642Z,9.69
2023-04-13T01:54:41.330Z,9.68
2023-04-13T01:57:12.795Z,9.66
2023-04-13T01:59:40.553Z,9.70
2023-04-13T02:02:17.077Z,9.70
2023-04-13T02:04:45.056Z,9.69
2023-04-13T02:07:12.932Z,9.69
2023-04-13T02:09:46.872Z,9.73
2023-04-13T02:12:16.855Z,9.73
2023-04-13T02:14:44.585Z,9.66
2023-04-13T02:17:14.244Z,9.71
2023-04-13T02:19:41.992Z,9.74
2023-04-13T02:22:09.788Z,9.73
2023-04-13T02:24:37.490Z,9.67
2023-04-13T02:27:05.510Z,9.52
2023-04-13T02:29:33.279Z,9.65
2023-04-13T02:32:01.471Z,9.71
2023-04-13T02:34:30.912Z,9.67
2023-04-13T02:36:58.725Z,9.68
2023-04-13T02:39:26.522Z,9.71
2023-04-13T02:41:55.929Z,9.76
2023-04-13T02:44:23.724Z,9.71
2023-04-13T02:46:58.076Z,9.71
2023-04-13T02:49:26.030Z,9.75
2023-04-13T02:52:01.472Z,9.78
2023-04-13T02:54:44.075Z,9.67
2023-04-13T02:57:13.428Z,9.70
2023-04-13T02:59:43.179Z,9.69
2023-04-13T03:02:12.619Z,9.70
2023-04-13T03:04:40.695Z,9.73
2023-04-13T03:07:10.619Z,9.74
2023-04-13T03:09:44.725Z,9.78
2023-04-13T03:12:12.692Z,9.73
2023-04-13T03:14:43.166Z,9.78
2023-04-13T03:17:12.581Z,9.79
2023-04-13T03:19:42.649Z,9.87
2023-04-13T03:22:13.085Z,9.85
2023-04-13T03:24:46.229Z,9.81
2023-04-13T03:27:21.236Z,9.78
2023-04-13T03:29:50.468Z,9.74
2023-04-13T03:32:22.704Z,9.81
2023-04-13T03:34:57.713Z,9.81
2023-04-13T03:37:29.985Z,9.76
2023-04-13T03:40:01.959Z,9.79
2023-04-13T03:42:34.525Z,9.82
2023-04-13T03:45:02.287Z,9.82
2023-04-13T03:47:30.212Z,9.78
2023-04-13T03:49:58.180Z,9.80
2023-04-13T03:52:28.039Z,9.80
2023-04-13T03:55:00.228Z,9.82
2023-04-13T03:57:32.307Z,9.81
2023-04-13T04:00:01.449Z,9.83
2023-04-13T04:02:47.582Z,9.80
2023-04-13T04:05:23.378Z,9.68
2023-04-13T04:08:01.315Z,9.74
2023-04-13T04:10:29.912Z,9.74
2023-04-13T04:12:59.304Z,9.76
2023-04-13T04:15:28.907Z,9.75
2023-04-13T04:18:02.297Z,9.84
2023-04-13T04:20:31.168Z,9.81
2023-04-13T04:23:04.843Z,9.79
2023-04-13T04:25:40.614Z,9.80
2023-04-13T04:28:08.832Z,9.78
2023-04-13T04:30:36.694Z,9.73
2023-04-13T04:33:07.237Z,9.68
2023-04-13T04:35:43.207Z,9.72
2023-04-13T04:38:12.345Z,9.66
2023-04-13T04:40:45.074Z,9.64
2023-04-13T04:43:15.650Z,9.66
2023-04-13T04:45:51.965Z,9.66
2023-04-13T04:48:20.858Z,9.68
2023-04-13T04:50:49.534Z,9.65
2023-04-13T04:53:19.462Z,9.67
2023-04-13T04:55:47.471Z,9.63
2023-04-13T04:58:26.890Z,9.62
2023-04-13T05:00:57.985Z,9.62
2023-04-13T05:03:26.078Z,9.66
2023-04-13T05:06:04.850Z,9.68
2023-04-13T05:08:35.932Z,9.69
2023-04-13T05:11:07.158Z,9.59
2023-04-13T05:13:35.640Z,9.59
2023-04-13T05:16:15.425Z,9.55
2023-04-13T05:18:47.038Z,9.56
2023-04-13T05:21:40.847Z,9.56
2023-04-13T05:24:11.638Z,9.48
2023-04-13T05:26:40.886Z,9.50
2023-04-13T05:29:09.311Z,9.50
2023-04-13T05:31:40.999Z,9.57
2023-04-13T05:34:08.786Z,9.48
2023-04-13T05:36:39.161Z,9.52
2023-04-13T05:39:13.912Z,9.61
2023-04-13T05:41:41.684Z,9.62
2023-04-13T05:44:09.732Z,9.57
2023-04-13T05:46:38.659Z,9.51
2023-04-13T05:49:08.250Z,9.58
2023-04-13T05:51:36.443Z,9.61
2023-04-13T05:54:04.510Z,9.60
2023-04-13T05:56:34.638Z,9.61
2023-04-13T05:59:03.622Z,9.60
2023-04-13T06:01:31.755Z,9.58
2023-04-13T06:04:04.013Z,9.41
2023-04-13T06:06:36.681Z,9.49
2023-04-13T06:09:08.868Z,9.59
2023-04-13T06:11:38.548Z,9.63
2023-04-13T06:14:06.732Z,9.61
2023-04-13T06:16:34.564Z,9.66
2023-04-13T06:19:02.592Z,9.71
2023-04-13T06:21:33.474Z,9.74
2023-04-13T06:24:01.432Z,9.74
2023-04-13T06:26:34.484Z,9.71
2023-04-13T06:29:04.623Z,9.75
2023-04-13T06:31:42.002Z,9.74
2023-04-13T06:34:14.667Z,9.70
2023-04-13T06:36:43.419Z,9.76
2023-04-13T06:39:18.828Z,9.82
2023-04-13T06:41:55.953Z,9.81
2023-04-13T06:44:45.164Z,9.85
2023-04-13T06:47:12.863Z,9.82
2023-04-13T06:49:43.650Z,9.88
2023-04-13T06:52:15.268Z,9.85
2023-04-13T06:54:43.363Z,9.87
2023-04-13T06:57:23.136Z,9.85
2023-04-13T06:59:52.213Z,9.82
2023-04-13T07:02:21.819Z,9.80
2023-04-13T07:04:50.252Z,9.81
2023-04-13T07:07:18.598Z,9.90
2023-04-13T07:09:51.100Z,9.83
2023-04-13T07:12:19.213Z,9.82
2023-04-13T07:14:48.163Z,9.82
2023-04-13T07:17:20.647Z,9.88
2023-04-13T07:19:50.018Z,9.90
2023-04-13T07:22:18.770Z,9.90
2023-04-13T07:24:48.235Z,9.99
2023-04-13T07:27:19.410Z,10.09
2023-04-13T07:29:49.158Z,10.11
2023-04-13T07:32:24.534Z,10.13
2023-04-13T07:35:01.192Z,10.20
2023-04-13T07:37:31.355Z,10.18
2023-04-13T07:39:59.151Z,10.23
2023-04-13T07:42:27.218Z,10.17
2023-04-13T07:44:56.334Z,10.09
2023-04-13T07:47:26.560Z,10.09
2023-04-13T07:49:59.698Z,10.10
2023-04-13T07:52:29.112Z,10.08
2023-04-13T07:54:56.803Z,10.08
2023-04-13T07:57:26.179Z,10.08
2023-04-13T07:59:59.095Z,10.15
2023-04-13T08:02:28.691Z,10.23
2023-04-13T08:04:59.668Z,10.26
2023-04-13T08:07:30.551Z,10.24
2023-04-13T08:09:58.543Z,10.28
2023-04-13T08:12:29.521Z,10.33
2023-04-13T08:14:57.351Z,10.40
2023-04-13T08:17:25.618Z,10.33
2023-04-13T08:19:54.781Z,10.39
2023-04-13T08:22:22.631Z,10.39
2023-04-13T08:24:50.430Z,10.38
2023-04-13T08:27:19.762Z,10.33
2023-04-13T08:29:47.911Z,10.33
2023-04-13T08:32:16.271Z,10.29
2023-04-13T08:34:44.243Z,10.32
2023-04-13T08:37:15.974Z,10.35
2023-04-13T08:39:45.278Z,10.36
2023-04-13T08:42:14.470Z,10.36
2023-04-13T08:44:43.466Z,10.28
2023-04-13T08:47:12.013Z,10.33
2023-04-13T08:49:41.811Z,10.34
2023-04-13T08:52:19.454Z,10.34
2023-04-13T08:54:54.602Z,10.48
2023-04-13T08:57:30.468Z,10.48
2023-04-13T08:59:59.667Z,10.45
2023-04-13T09:02:32.867Z,10.49
2023-04-13T09:05:15.794Z,10.50
2023-04-13T09:07:53.669Z,10.52
2023-04-13T09:10:22.394Z,10.52
2023-04-13T09:12:51.305Z,10.57
2023-04-13T09:15:19.633Z,10.57
2023-04-13T09:18:09.942Z,10.65
2023-04-13T09:20:42.930Z,10.65
2023-04-13T09:23:17.072Z,10.72
2023-04-13T09:25:46.784Z,10.70
2023-04-13T09:28:18.780Z,10.66
2023-04-13T09:30:47.139Z,10.57
2023-04-13T09:33:16.307Z,10.69
2023-04-13T09:35:43.984Z,10.66
2023-04-13T09:38:15.290Z,10.65
2023-04-13T09:40:51.556Z,10.64
2023-04-13T09:43:19.462Z,10.68
2023-04-13T09:45:47.370Z,10.69
2023-04-13T09:48:20.573Z,10.75
2023-04-13T09:50:59.446Z,10.86
2023-04-13T09:53:28.754Z,10.84
2023-04-13T09:56:01.258Z,10.86
2023-04-13T09:58:31.429Z,10.96
2023-04-13T10:00:59.457Z,10.96
2023-04-13T10:03:28.571Z,11.07
2023-04-13T10:06:00.408Z,11.11
2023-04-13T10:11:02.505Z,11.26
2023-04-13T10:13:36.852Z,11.46
2023-04-13T10:16:24.266Z,11.58
2023-04-13T10:19:00.369Z,11.81
2023-04-13T10:21:33.536Z,11.89
2023-04-13T10:24:01.639Z,12.12
2023-04-13T10:26:34.526Z,12.29
2023-04-13T10:29:03.241Z,12.28
2023-04-13T10:31:39.034Z,12.21
2023-04-13T10:34:07.241Z,12.31
2023-04-13T10:36:39.622Z,12.78
2023-04-13T10:39:08.293Z,12.66
2023-04-13T10:41:38.061Z,12.63
2023-04-13T10:44:07.779Z,12.78
2023-04-13T10:46:36.596Z,13.11
2023-04-13T10:49:06.919Z,12.84
2023-04-13T10:51:41.443Z,13.37
2023-04-13T10:54:10.071Z,13.68
2023-04-13T10:56:40.219Z,13.60
2023-04-13T10:59:08.397Z,13.37
2023-04-13T11:01:36.455Z,13.07
2023-04-13T11:04:06.854Z,12.94
2023-04-13T11:06:38.925Z,12.86
2023-04-13T11:09:08.154Z,12.57
2023-04-13T11:11:37.325Z,12.37
2023-04-13T11:14:06.457Z,12.34
2023-04-13T11:16:44.969Z,12.16
2023-04-13T11:19:12.851Z,12.13
2023-04-13T11:21:40.746Z,12.07
2023-04-13T11:24:10.102Z,11.91
2023-04-13T11:26:38.857Z,11.93
2023-04-13T11:29:19.979Z,12.02
2023-04-13T11:31:48.048Z,12.08
2023-04-13T11:34:25.812Z,12.16
2023-04-13T11:37:02.270Z,12.23
2023-04-13T11:39:32.114Z,12.24
2023-04-13T11:42:05.988Z,12.45
2023-04-13T11:44:36.929Z,12.59
2023-04-13T11:47:05.885Z,12.83
2023-04-13T11:49:34.127Z,12.74
2023-04-13T11:52:03.332Z,12.74
2023-04-13T11:54:31.827Z,12.75
2023-04-13T11:56:59.651Z,12.61
2023-04-13T11:59:29.059Z,12.56
2023-04-13T12:02:02.888Z,12.45
2023-04-13T12:04:38.180Z,12.37
2023-04-13T12:07:13.402Z,12.21
2023-04-13T12:09:55.952Z,12.23
2023-04-13T12:17:39.427Z,12.23
2023-04-13T12:20:16.219Z,12.41
2023-04-13T12:22:54.881Z,12.53
2023-04-13T12:25:35.603Z,12.59
2023-04-13T12:28:04.581Z,13.42
2023-04-13T12:30:34.162Z,13.65
2023-04-13T12:33:03.444Z,14.69
2023-04-13T12:35:31.279Z,14.29
2023-04-13T12:38:00.141Z,14.85
2023-04-13T12:40:27.883Z,14.93
2023-04-13T12:42:55.761Z,15.78
2023-04-13T12:45:23.690Z,16.30
2023-04-13T12:47:51.510Z,16.99
2023-04-13T12:50:20.664Z,17.26
2023-04-13T12:52:49.835Z,16.09
2023-04-13T12:55:18.220Z,15.36
2023-04-13T12:57:45.930Z,14.96
2023-04-13T13:00:15.822Z,14.61
2023-04-13T13:02:43.880Z,14.61
2023-04-13T13:05:11.925Z,15.28
2023-04-13T13:07:41.035Z,14.83
2023-04-13T13:10:25.786Z,14.51
2023-04-13T13:12:57.201Z,14.32
2023-04-13T13:15:24.995Z,14.14
2023-04-13T13:17:52.860Z,15.06
2023-04-13T13:20:20.766Z,16.12
2023-04-13T13:22:49.831Z,15.02
2023-04-13T13:25:17.587Z,14.42
2023-04-13T13:30:16.554Z,15.17
2023-04-13T13:32:44.337Z,16.65
2023-04-13T13:35:12.080Z,17.28
2023-04-13T13:37:39.849Z,16.40
2023-04-13T13:40:13.031Z,17.59
2023-04-13T13:42:51.330Z,17.96
2023-04-13T13:45:19.378Z,16.96
2023-04-13T13:47:47.494Z,17.05
2023-04-13T13:50:15.400Z,17.71
2023-04-13T13:52:59.724Z,17.78
2023-04-13T13:55:34.658Z,17.78
2023-04-13T13:58:02.413Z,18.01
2023-04-13T14:00:30.117Z,18.03
2023-04-13T14:02:58.016Z,17.73
2023-04-13T14:05:26.397Z,17.70
2023-04-13T14:07:54.308Z,17.71
2023-04-13T14:10:22.189Z,17.48
2023-04-13T14:12:51.908Z,17.12
2023-04-13T14:15:19.807Z,17.14
2023-04-13T14:17:58.722Z,17.14
2023-04-13T14:20:35.687Z,17.34
2023-04-13T14:23:03.557Z,17.34
2023-04-13T14:25:31.386Z,17.38
2023-04-13T14:28:00.909Z,17.53
2023-04-13T14:30:28.955Z,17.53
2023-04-13T14:32:57.256Z,17.23
2023-04-13T14:35:25.172Z,17.12
2023-04-13T14:37:53.224Z,17.19
2023-04-13T14:40:23.249Z,17.17
2023-04-13T14:42:52.844Z,16.44
2023-04-13T14:45:22.215Z,16.06
2023-04-13T14:47:50.052Z,15.87
2023-04-13T14:50:18.137Z,15.63
2023-04-13T14:52:46.616Z,15.71
2023-04-13T14:55:15.005Z,15.81
2023-04-13T14:57:42.762Z,15.85
2023-04-13T15:00:15.780Z,15.70
2023-04-13T15:02:45.265Z,15.63
2023-04-13T15:05:13.159Z,15.51
2023-04-13T15:07:42.383Z,15.48
2023-04-13T15:10:10.402Z,15.40
2023-04-13T15:12:38.076Z,15.29
2023-04-13T15:15:06.980Z,15.36
2023-04-13T15:17:34.814Z,15.34
2023-04-13T15:20:07.313Z,15.41
2023-04-13T15:22:36.746Z,15.45
2023-04-13T15:25:04.818Z,15.47
2023-04-13T15:27:32.690Z,15.59
2023-04-13T15:30:03.068Z,15.65
2023-04-13T15:32:31.357Z,15.69
2023-04-13T15:34:59.177Z,15.62
2023-04-13T15:37:28.402Z,15.59
2023-04-13T15:39:56.162Z,15.42
2023-04-13T15:42:23.939Z,15.37
2023-04-13T15:44:51.649Z,15.33
2023-04-13T15:47:19.398Z,15.29
2023-04-13T15:49:47.178Z,15.27
2023-04-13T15:52:14.918Z,15.23
2023-04-13T15:54:43.972Z,15.14
2023-04-13T15:57:12.277Z,15.03
2023-04-13T15:59:40.093Z,15.04
2023-04-13T16:02:08.455Z,15.10
2023-04-13T16:04:36.681Z,15.17
2023-04-13T16:07:12.823Z,15.23
2023-04-13T16:09:45.014Z,15.19
2023-04-13T16:12:12.962Z,15.19
2023-04-13T16:14:41.792Z,15.18
2023-04-13T16:17:10.393Z,15.19
2023-04-13T16:19:39.620Z,15.20
2023-04-13T16:22:10.417Z,15.21
2023-04-13T16:24:38.591Z,15.16
2023-04-13T16:27:08.691Z,15.19
2023-04-13T16:29:36.565Z,15.25
2023-04-13T16:32:04.323Z,15.29
2023-04-13T16:34:32.051Z,15.32
2023-04-13T16:36:59.854Z,15.40
2023-04-13T16:39:27.616Z,15.36
2023-04-13T16:41:55.500Z,15.30
2023-04-13T16:44:24.620Z,15.42
2023-04-13T16:46:52.432Z,15.43
2023-04-13T16:49:20.281Z,15.42
2023-04-13T16:51:48.525Z,15.48
2023-04-13T16:54:17.786Z,15.46
2023-04-13T16:56:45.624Z,15.43
2023-04-13T16:59:13.324Z,15.45
2023-04-13T17:01:42.403Z,15.43
2023-04-13T17:04:10.499Z,15.41
2023-04-13T17:06:39.372Z,15.31
2023-04-13T17:09:07.130Z,15.22
2023-04-13T17:11:35.495Z,15.15
2023-04-13T17:14:03.297Z,14.99
2023-04-13T17:16:31.113Z,14.94
2023-04-13T17:19:00.470Z,14.84
2023-04-13T17:21:28.779Z,14.67
2023-04-13T17:23:56.536Z,14.56
2023-04-13T17:26:24.288Z,14.42
2023-04-13T17:28:52.249Z,14.32
2023-04-13T17:31:20.152Z,14.15
2023-04-13T17:33:50.304Z,14.01
2023-04-13T17:36:21.950Z,13.94
2023-04-13T17:38:49.763Z,13.87
2023-04-13T17:41:18.425Z,13.82
2023-04-13T17:43:46.197Z,13.70
2023-04-13T17:46:13.950Z,13.63
2023-04-13T17:48:41.919Z,13.53
2023-04-13T17:51:11.747Z,13.46
2023-04-13T17:53:41.046Z,13.43
2023-04-13T17:56:14.503Z,13.36
2023-04-13T17:58:42.451Z,13.26
2023-04-13T18:01:11.556Z,13.15
2023-04-13T18:03:39.747Z,13.16
2023-04-13T18:06:08.212Z,13.04
2023-04-13T18:08:36.189Z,12.95
2023-04-13T18:11:05.423Z,12.88
2023-04-13T18:13:34.312Z,12.85
2023-04-13T18:16:02.261Z,12.85
2023-04-13T18:18:30.287Z,12.82
2023-04-13T18:20:58.169Z,12.72
2023-04-13T18:23:25.888Z,12.61
2023-04-13T18:25:53.784Z,12.51
2023-04-13T18:28:22.945Z,12.45
2023-04-13T18:30:50.917Z,12.33
2023-04-13T18:33:18.701Z,12.28
2023-04-13T18:35:46.804Z,12.22
2023-04-13T18:38:14.684Z,12.13
2023-04-13T18:40:42.486Z,12.04
2023-04-13T18:43:10.407Z,12.04
2023-04-13T18:45:39.902Z,12.00
2023-04-13T18:48:09.529Z,11.92
2023-04-13T18:50:37.682Z,11.87
2023-04-13T18:53:06.111Z,11.82
2023-04-13T18:55:34.258Z,11.76
2023-04-13T18:58:02.023Z,11.71
2023-04-13T19:00:29.726Z,11.65
2023-04-13T19:02:58.994Z,11.62
2023-04-13T19:05:27.842Z,11.60
2023-04-13T19:07:58.658Z,11.53
2023-04-13T19:10:27.895Z,11.59
2023-04-13T19:12:56.016Z,11.55
2023-04-13T19:15:24.010Z,11.56
2023-04-13T19:17:52.217Z,11.52
2023-04-13T19:20:23.016Z,11.50
2023-04-13T19:22:51.905Z,11.49
2023-04-13T19:25:19.602Z,11.54
2023-04-13T19:27:48.284Z,11.61
2023-04-13T19:30:18.012Z,11.70
2023-04-13T19:32:48.078Z,11.80
2023-04-13T19:35:16.275Z,11.83
2023-04-13T19:37:45.416Z,11.87
2023-04-13T19:40:14.474Z,11.91
2023-04-13T19:42:43.508Z,11.94
2023-04-13T19:45:12.257Z,11.95
2023-04-13T19:47:41.195Z,11.95
2023-04-13T19:50:10.999Z,11.94
2023-04-13T19:52:39.505Z,11.90
2023-04-13T19:55:10.453Z,11.87
2023-04-13T19:57:42.057Z,11.95
2023-04-13T20:00:17.949Z,12.03
2023-04-13T20:02:46.978Z,12.10
2023-04-13T20:05:15.461Z,12.11
2023-04-13T20:07:43.370Z,12.12
2023-04-13T20:10:13.079Z,12.16
2023-04-13T20:12:40.850Z,12.17
2023-04-13T20:15:09.320Z,12.18
2023-04-13T20:17:37.074Z,12.18
2023-04-13T20:20:06.867Z,12.11
2023-04-13T20:22:34.684Z,12.07
2023-04-13T20:25:02.479Z,12.03
2023-04-13T20:27:31.562Z,11.93
2023-04-13T20:29:59.849Z,11.92
2023-04-13T20:32:27.667Z,11.82
2023-04-13T20:34:55.468Z,11.79
2023-04-13T20:37:23.299Z,11.73
2023-04-13T20:39:51.051Z,11.71
2023-04-13T20:42:19.377Z,11.67
2023-04-13T20:44:49.175Z,11.65
2023-04-13T20:47:17.337Z,11.66
2023-04-13T20:49:49.510Z,11.59
2023-04-13T20:52:17.900Z,11.60
2023-04-13T20:54:46.021Z,11.60
2023-04-13T20:57:14.450Z,11.54
2023-04-13T20:59:43.280Z,11.58
2023-04-13T21:02:12.454Z,11.60
2023-04-13T21:04:41.181Z,11.62
2023-04-13T21:07:11.063Z,11.60
2023-04-13T21:09:38.919Z,11.63
2023-04-13T21:12:06.894Z,11.63
2023-04-13T21:14:34.609Z,11.65
2023-04-13T21:17:02.312Z,11.60
2023-04-13T21:19:32.587Z,11.53
2023-04-13T21:22:00.328Z,11.51
2023-04-13T21:24:28.092Z,11.49
2023-04-13T21:26:56.509Z,11.55
2023-04-13T21:29:24.335Z,11.52
2023-04-13T21:31:52.248Z,11.43
2023-04-13T21:34:20.125Z,11.52
2023-04-13T21:36:52.028Z,11.50
2023-04-13T21:39:20.320Z,11.52
2023-04-13T21:41:48.064Z,11.55
2023-04-13T21:44:28.785Z,11.56
2023-04-13T21:46:57.360Z,11.55
2023-04-13T21:49:25.180Z,11.57
2023-04-13T21:51:54.270Z,11.54
2023-04-13T21:54:22.118Z,11.50
2023-04-13T21:56:50.031Z,11.52
2023-04-13T21:59:17.775Z,11.48
2023-04-13T22:01:46.920Z,11.45
2023-04-13T22:04:15.040Z,11.47
2023-04-13T22:06:42.855Z,11.47
2023-04-13T22:09:12.542Z,11.46
2023-04-13T22:11:40.901Z,11.43
2023-04-13T22:14:08.791Z,11.37
2023-04-13T22:16:36.631Z,11.31
2023-04-13T22:19:04.380Z,11.25
2023-04-13T22:21:34.690Z,11.18
2023-04-13T22:24:02.501Z,11.14
2023-04-13T22:26:31.610Z,11.07
2023-04-13T22:28:59.847Z,11.03
2023-04-13T22:31:27.918Z,10.96
2023-04-13T22:33:56.413Z,10.92
2023-04-13T22:36:24.173Z,10.81
2023-04-13T22:38:51.982Z,10.83
2023-04-13T22:41:19.755Z,10.70
2023-04-13T22:43:48.807Z,10.67
2023-04-13T22:46:16.691Z,10.63
2023-04-13T22:48:44.487Z,10.51
2023-04-13T22:51:12.249Z,10.45
2023-04-13T22:53:39.961Z,10.41
2023-04-13T22:56:08.046Z,10.37
2023-04-13T22:58:35.966Z,10.31
2023-04-13T23:01:05.881Z,10.32
2023-04-13T23:03:33.759Z,10.29
2023-04-13T23:06:01.587Z,10.22
2023-04-13T23:08:30.156Z,10.21
2023-04-13T23:10:57.914Z,10.13
2023-04-13T23:13:26.144Z,10.07
2023-04-13T23:16:00.177Z,10.07
2023-04-13T23:18:29.771Z,10.01
2023-04-13T23:20:57.462Z,9.97
2023-04-13T23:23:25.374Z,9.97
2023-04-13T23:25:53.229Z,9.89
2023-04-13T23:28:21.020Z,9.84
2023-04-13T23:30:48.728Z,9.87
2023-04-13T23:33:16.434Z,9.85
2023-04-13T23:35:52.619Z,9.86
2023-04-13T23:38:20.649Z,9.78
2023-04-13T23:40:48.365Z,9.75
2023-04-13T23:43:16.299Z,9.77
2023-04-13T23:45:44.199Z,9.80
2023-04-13T23:48:11.980Z,9.82
2023-04-13T23:50:39.694Z,9.86
2023-04-13T23:53:08.932Z,9.90
2023-04-13T23:55:36.732Z,9.95
2023-04-13T23:58:04.780Z,9.94
